Time;durP1;ratioP1;P1;durP2;ratioP2;P2;SDS_P1;SDS_P2;PMS_P1;PMS_P2;Temp;Humidity;BMP_temperature;BMP_pressure;BME280_temperature;BME280_humidity;BME280_pressure;Samples;Min_cycle;Max_cycle;Signal;HPM_P1;HPM_P2
2020/12/30 00:01:41;;;;;;;24.27;8.60;;;1.40;99.90;;;;;;5090738;28;20409;-72
2020/12/30 00:04:08;;;;;;;24.80;9.87;;;1.50;99.90;;;;;;5091619;28;20420;-72
2020/12/30 00:06:35;;;;;;;18.63;8.03;;;1.50;99.90;;;;;;5091312;28;20052;-72
2020/12/30 00:09:02;;;;;;;19.57;6.97;;;1.40;99.90;;;;;;5091808;28;20052;-72
2020/12/30 00:11:29;;;;;;;13.03;5.63;;;1.40;99.90;;;;;;5090788;28;20051;-73
2020/12/30 00:13:56;;;;;;;12.50;6.47;;;1.40;99.90;;;;;;5091101;28;20052;-73
2020/12/30 00:16:26;;;;;;;17.10;6.73;;;1.50;99.90;;;;;;5090841;28;20051;-73
2020/12/30 00:18:53;;;;;;;13.47;6.10;;;1.50;99.90;;;;;;5091318;28;20060;-72
2020/12/30 00:21:20;;;;;;;13.03;5.80;;;1.60;99.90;;;;;;5090568;28;20577;-70
2020/12/30 00:23:47;;;;;;;11.43;5.83;;;1.60;99.90;;;;;;5091270;28;20052;-70
2020/12/30 00:26:19;;;;;;;11.73;6.77;;;1.70;99.90;;;;;;5091235;28;20055;-70
2020/12/30 00:28:46;;;;;;;15.03;6.43;;;1.70;99.90;;;;;;5091135;28;20389;-70
2020/12/30 00:31:13;;;;;;;16.60;6.73;;;1.80;99.90;;;;;;5090645;28;20492;-70
2020/12/30 00:33:39;;;;;;;14.40;6.20;;;1.80;99.90;;;;;;5090498;28;20066;-70
2020/12/30 00:36:08;;;;;;;14.20;6.20;;;1.70;99.90;;;;;;5091246;28;20420;-70
2020/12/30 00:38:34;;;;;;;11.93;5.50;;;1.70;99.90;;;;;;5090512;28;20055;-70
2020/12/30 00:41:01;;;;;;;12.00;5.30;;;1.70;99.90;;;;;;5090689;28;20044;-70
2020/12/30 00:43:28;;;;;;;11.83;5.70;;;1.70;99.90;;;;;;5090504;28;20063;-70
2020/12/30 00:45:55;;;;;;;17.00;6.27;;;1.70;99.90;;;;;;5091016;28;20056;-70
2020/12/30 00:48:22;;;;;;;12.80;5.63;;;1.70;99.90;;;;;;5090284;28;20052;-70
2020/12/30 00:50:48;;;;;;;13.70;5.53;;;1.70;99.90;;;;;;5090764;28;20048;-70
2020/12/30 00:53:15;;;;;;;12.33;5.53;;;1.80;99.90;;;;;;5090303;28;20052;-70
2020/12/30 00:55:41;;;;;;;12.00;5.20;;;1.80;99.90;;;;;;5090690;28;20052;-70
2020/12/30 00:58:08;;;;;;;15.77;5.67;;;1.80;99.90;;;;;;5090450;28;20055;-70
2020/12/30 01:00:35;;;;;;;11.60;5.47;;;1.80;99.90;;;;;;5090854;28;20052;-70
2020/12/30 01:03:02;;;;;;;10.90;5.13;;;1.80;99.90;;;;;;5090681;28;20060;-70
2020/12/30 01:05:29;;;;;;;15.03;5.67;;;1.80;99.90;;;;;;5090894;28;20044;-70
2020/12/30 01:07:59;;;;;;;15.03;5.70;;;1.80;99.90;;;;;;5092630;28;20051;-70
2020/12/30 01:10:25;;;;;;;12.73;5.43;;;1.90;99.90;;;;;;5094232;28;20047;-70
2020/12/30 01:12:52;;;;;;;10.93;5.53;;;1.90;99.90;;;;;;5094628;28;20044;-70
2020/12/30 01:15:19;;;;;;;13.37;5.17;;;1.90;99.90;;;;;;5094602;28;20051;-70
2020/12/30 01:17:46;;;;;;;14.10;6.57;;;1.90;99.90;;;;;;5094483;28;20444;-70
2020/12/30 01:20:13;;;;;;;10.43;4.80;;;1.80;99.90;;;;;;5094088;28;20077;-70
2020/12/30 01:22:39;;;;;;;14.00;5.13;;;1.80;99.90;;;;;;5094487;28;20048;-70
2020/12/30 01:25:06;;;;;;;11.10;4.60;;;1.80;99.90;;;;;;5093934;28;20059;-70
2020/12/30 01:27:33;;;;;;;13.00;5.23;;;1.80;99.90;;;;;;5094400;28;20513;-70
2020/12/30 01:29:59;;;;;;;11.73;5.63;;;1.90;99.90;;;;;;5094051;28;20048;-70
2020/12/30 01:32:26;;;;;;;12.30;5.67;;;1.90;99.90;;;;;;5094518;28;20055;-70
2020/12/30 01:34:53;;;;;;;11.47;4.93;;;1.90;99.90;;;;;;5094150;28;20048;-70
2020/12/30 01:37:20;;;;;;;12.90;5.30;;;1.80;99.90;;;;;;5093392;28;20059;-70
2020/12/30 01:39:47;;;;;;;12.10;5.30;;;1.80;99.90;;;;;;5093842;28;20439;-70
2020/12/30 01:42:13;;;;;;;10.93;5.33;;;1.80;99.90;;;;;;5094698;28;20439;-70
2020/12/30 01:44:40;;;;;;;11.03;5.20;;;1.90;99.90;;;;;;5094207;28;20099;-70
2020/12/30 01:47:07;;;;;;;9.27;4.30;;;1.90;99.90;;;;;;5093633;28;20052;-70
2020/12/30 01:49:34;;;;;;;12.47;5.00;;;1.90;99.90;;;;;;5094165;28;20413;-70
2020/12/30 01:52:02;;;;;;;8.80;4.73;;;1.80;99.90;;;;;;5092955;28;20052;-70
2020/12/30 01:54:29;;;;;;;8.30;4.20;;;1.90;99.90;;;;;;5093748;28;20063;-70
2020/12/30 01:56:56;;;;;;;13.23;4.77;;;1.90;99.90;;;;;;5093388;28;20056;-70
2020/12/30 01:59:23;;;;;;;10.03;4.83;;;1.90;99.90;;;;;;5093664;28;20144;-70
2020/12/30 02:01:54;;;;;;;9.50;4.60;;;1.90;99.90;;;;;;5093142;28;20059;-70
2020/12/30 02:04:25;;;;;;;9.60;4.70;;;1.90;99.90;;;;;;5093492;28;20066;-70
2020/12/30 02:06:51;;;;;;;10.90;5.80;;;1.90;99.90;;;;;;5093145;28;20056;-70
2020/12/30 02:09:20;;;;;;;12.10;5.03;;;1.90;99.90;;;;;;5093805;28;20059;-70
2020/12/30 02:11:50;;;;;;;12.20;5.90;;;1.90;99.90;;;;;;5092813;28;20085;-70
2020/12/30 02:14:17;;;;;;;10.03;5.13;;;1.90;99.90;;;;;;5093512;28;20051;-70
2020/12/30 02:16:49;;;;;;;16.83;5.60;;;1.90;99.90;;;;;;5092989;28;20056;-70
2020/12/30 02:19:16;;;;;;;11.83;4.80;;;1.90;99.90;;;;;;5092867;28;20509;-70
2020/12/30 02:21:43;;;;;;;11.50;4.80;;;1.90;99.90;;;;;;5092728;28;20385;-70
2020/12/30 02:24:11;;;;;;;13.83;4.70;;;2.00;99.90;;;;;;5093329;28;20488;-70
2020/12/30 02:26:39;;;;;;;9.60;4.30;;;1.90;99.90;;;;;;5093653;28;20052;-70
2020/12/30 02:29:05;;;;;;;11.97;5.30;;;1.90;99.90;;;;;;5092857;28;20047;-70
2020/12/30 02:31:32;;;;;;;9.77;4.60;;;1.90;99.90;;;;;;5092728;28;20046;-70
2020/12/30 02:33:59;;;;;;;10.77;4.80;;;1.90;99.90;;;;;;5093060;28;20054;-70
2020/12/30 02:36:25;;;;;;;9.00;4.67;;;1.90;99.90;;;;;;5093048;28;20052;-70
2020/12/30 02:38:53;;;;;;;11.93;4.57;;;1.90;99.90;;;;;;5092654;28;20048;-70
2020/12/30 02:41:20;;;;;;;10.53;4.57;;;1.90;99.90;;;;;;5092957;28;20052;-70
2020/12/30 02:43:48;;;;;;;10.27;4.70;;;1.90;99.90;;;;;;5092545;28;20044;-70
2020/12/30 02:46:15;;;;;;;12.00;4.77;;;1.90;99.90;;;;;;5092563;28;20078;-70
2020/12/30 02:48:41;;;;;;;13.77;4.80;;;1.90;99.90;;;;;;5092619;28;20106;-70
2020/12/30 02:51:08;;;;;;;9.77;4.57;;;1.90;99.90;;;;;;5092600;28;20058;-70
2020/12/30 02:53:35;;;;;;;11.83;4.73;;;1.90;99.90;;;;;;5092227;28;20169;-72
2020/12/30 02:56:01;;;;;;;10.33;5.03;;;1.90;99.90;;;;;;5092776;28;20139;-70
2020/12/30 02:58:28;;;;;;;11.07;5.03;;;1.90;99.90;;;;;;5092330;28;20116;-70
2020/12/30 03:00:56;;;;;;;10.53;4.63;;;1.90;99.90;;;;;;5091569;28;20044;-70
2020/12/30 03:03:24;;;;;;;10.10;5.27;;;1.80;99.90;;;;;;5092544;28;20056;-70
2020/12/30 03:05:51;;;;;;;14.17;4.90;;;1.90;99.90;;;;;;5092429;28;20095;-70
2020/12/30 03:08:17;;;;;;;11.33;4.70;;;1.90;99.90;;;;;;5092369;28;20048;-70
2020/12/30 03:10:44;;;;;;;9.50;4.30;;;1.80;99.90;;;;;;5091515;28;20117;-70
2020/12/30 03:13:11;;;;;;;10.70;4.70;;;1.80;99.90;;;;;;5092034;28;20054;-70
2020/12/30 03:15:37;;;;;;;11.67;4.93;;;1.80;99.90;;;;;;5091856;28;20059;-70
2020/12/30 03:18:05;;;;;;;9.37;4.40;;;1.90;99.90;;;;;;5092202;28;20056;-70
2020/12/30 03:20:32;;;;;;;10.80;4.90;;;2.00;99.90;;;;;;5091649;28;20051;-70
2020/12/30 03:22:58;;;;;;;9.87;4.73;;;1.90;99.90;;;;;;5092019;28;20052;-70
2020/12/30 03:25:25;;;;;;;10.50;5.00;;;1.80;99.90;;;;;;5091727;28;20516;-70
2020/12/30 03:27:51;;;;;;;9.03;5.00;;;1.80;99.90;;;;;;5091897;28;20508;-70
2020/12/30 03:30:18;;;;;;;12.30;5.63;;;1.80;99.90;;;;;;5091043;28;20566;-70
2020/12/30 03:32:45;;;;;;;10.77;4.90;;;1.70;99.90;;;;;;5091725;28;20052;-70
2020/12/30 03:35:12;;;;;;;12.20;5.20;;;1.70;99.90;;;;;;5092036;28;20052;-70
2020/12/30 03:37:39;;;;;;;12.37;6.10;;;1.70;99.90;;;;;;5091646;28;20048;-70
2020/12/30 03:40:06;;;;;;;10.50;4.97;;;1.60;99.90;;;;;;5091779;28;20052;-70
2020/12/30 03:42:32;;;;;;;13.93;5.13;;;1.60;99.90;;;;;;5090569;28;20112;-70
2020/12/30 03:44:59;;;;;;;13.20;5.10;;;1.70;99.90;;;;;;5089789;28;20048;-70
2020/12/30 03:47:28;;;;;;;10.07;4.80;;;1.70;99.90;;;;;;5090275;28;20063;-72
2020/12/30 03:49:55;;;;;;;9.83;4.33;;;1.60;99.90;;;;;;5091839;28;20095;-70
2020/12/30 03:52:22;;;;;;;11.43;4.83;;;1.50;99.90;;;;;;5091141;28;20052;-70
2020/12/30 03:54:49;;;;;;;12.57;5.00;;;1.60;99.90;;;;;;5091413;28;20052;-70
2020/12/30 03:57:16;;;;;;;11.37;5.03;;;1.50;99.90;;;;;;5091240;28;20044;-70
2020/12/30 03:59:43;;;;;;;12.67;5.30;;;1.50;99.90;;;;;;5091412;28;20051;-70
2020/12/30 04:02:09;;;;;;;11.27;5.27;;;1.40;99.90;;;;;;5090868;28;20051;-70
2020/12/30 04:04:36;;;;;;;13.63;6.90;;;1.40;99.90;;;;;;5091591;28;20054;-70
2020/12/30 04:07:03;;;;;;;11.97;5.77;;;1.40;99.90;;;;;;5090931;28;20048;-70
2020/12/30 04:09:30;;;;;;;14.30;5.33;;;1.20;99.90;;;;;;5091126;28;20052;-70
2020/12/30 04:11:57;;;;;;;11.67;5.13;;;1.20;99.90;;;;;;5090922;28;20052;-70
2020/12/30 04:14:24;;;;;;;10.93;5.33;;;1.10;99.90;;;;;;5090884;28;20044;-70
2020/12/30 04:16:50;;;;;;;14.20;5.20;;;1.00;99.90;;;;;;5091226;28;20048;-70
2020/12/30 04:19:17;;;;;;;14.53;5.60;;;1.00;99.90;;;;;;5090982;28;20048;-70
2020/12/30 04:21:44;;;;;;;11.90;5.33;;;1.00;99.90;;;;;;5091014;28;20055;-70
2020/12/30 04:24:10;;;;;;;14.70;6.00;;;1.00;99.90;;;;;;5090578;28;20055;-70
2020/12/30 04:26:38;;;;;;;11.20;6.40;;;1.10;99.90;;;;;;5091123;28;20052;-70
2020/12/30 04:29:04;;;;;;;12.33;5.87;;;1.00;99.90;;;;;;5090753;28;20056;-70
2020/12/30 04:31:31;;;;;;;14.27;6.73;;;1.00;99.90;;;;;;5090900;28;20059;-70
2020/12/30 04:33:58;;;;;;;14.87;5.97;;;1.20;99.90;;;;;;5090759;28;20485;-70
2020/12/30 04:36:25;;;;;;;13.10;6.37;;;1.20;99.90;;;;;;5091061;28;20044;-71
2020/12/30 04:38:52;;;;;;;13.87;6.53;;;1.20;99.90;;;;;;5090752;28;20066;-70
2020/12/30 04:41:27;;;;;;;13.60;6.93;;;1.10;99.90;;;;;;5090635;28;20058;-70
2020/12/30 04:43:56;;;;;;;15.03;6.53;;;1.10;99.90;;;;;;5090565;28;20060;-70
2020/12/30 04:46:25;;;;;;;13.77;6.40;;;1.10;99.90;;;;;;5090813;28;20056;-70
2020/12/30 04:48:52;;;;;;;12.60;6.23;;;1.10;99.90;;;;;;5091273;28;20048;-70
2020/12/30 04:51:20;;;;;;;14.30;6.57;;;1.20;99.90;;;;;;5090401;28;20158;-70
2020/12/30 04:53:50;;;;;;;12.40;6.17;;;1.20;99.90;;;;;;5090852;28;20512;-70
2020/12/30 04:56:17;;;;;;;12.50;6.23;;;1.30;99.90;;;;;;5090382;28;20051;-70
2020/12/30 04:58:45;;;;;;;13.57;6.27;;;1.40;99.90;;;;;;5090851;28;20059;-70
2020/12/30 05:01:18;;;;;;;9.67;5.37;;;1.40;99.90;;;;;;5090186;28;20055;-70
2020/12/30 05:03:46;;;;;;;10.10;5.80;;;1.50;99.90;;;;;;5090665;28;20059;-70
2020/12/30 05:06:16;;;;;;;11.60;5.67;;;1.70;99.90;;;;;;5091101;28;20048;-70
2020/12/30 05:08:43;;;;;;;13.23;5.10;;;1.80;99.90;;;;;;5090721;28;20506;-70
2020/12/30 05:11:10;;;;;;;10.07;5.07;;;1.80;99.90;;;;;;5090465;28;20139;-70
2020/12/30 05:13:37;;;;;;;11.10;4.70;;;1.80;99.90;;;;;;5090867;28;20385;-70
2020/12/30 05:16:03;;;;;;;11.37;4.93;;;1.80;99.90;;;;;;5090146;28;20053;-70
2020/12/30 05:18:31;;;;;;;12.37;4.80;;;1.70;99.90;;;;;;5090753;28;20469;-70
2020/12/30 05:20:58;;;;;;;8.17;4.70;;;1.80;99.90;;;;;;5090195;28;20066;-70
2020/12/30 05:23:27;;;;;;;10.93;4.57;;;1.80;99.90;;;;;;5090826;28;20052;-70
2020/12/30 05:25:54;;;;;;;7.97;4.37;;;1.80;99.90;;;;;;5091265;28;20060;-70
2020/12/30 05:28:24;;;;;;;9.50;4.60;;;1.80;99.90;;;;;;5090268;28;20059;-70
2020/12/30 05:30:52;;;;;;;11.60;4.80;;;1.90;99.90;;;;;;5090053;28;20059;-70
2020/12/30 05:33:18;;;;;;;10.13;4.67;;;2.00;99.90;;;;;;5090127;28;20059;-70
2020/12/30 05:35:47;;;;;;;10.10;4.67;;;2.00;99.90;;;;;;5090604;28;20447;-70
2020/12/30 05:38:14;;;;;;;15.00;4.93;;;1.90;99.90;;;;;;5090329;28;20044;-70
2020/12/30 05:40:40;;;;;;;11.27;5.37;;;1.90;99.90;;;;;;5090295;28;20044;-70
2020/12/30 05:43:11;;;;;;;10.53;5.20;;;1.90;99.90;;;;;;5089944;28;20083;-70
2020/12/30 05:45:46;;;;;;;13.87;5.80;;;1.90;99.90;;;;;;5090634;28;20044;-70
2020/12/30 05:48:13;;;;;;;10.50;5.73;;;2.00;99.90;;;;;;5090178;28;20121;-70
2020/12/30 05:50:48;;;;;;;11.87;5.50;;;2.10;99.90;;;;;;5090340;28;20052;-70
2020/12/30 05:53:15;;;;;;;15.23;5.80;;;2.10;99.90;;;;;;5089854;28;20436;-71
2020/12/30 05:55:42;;;;;;;11.30;5.17;;;2.20;99.90;;;;;;5093165;28;20062;-70
2020/12/30 05:58:13;;;;;;;10.60;5.60;;;2.20;99.90;;;;;;5093268;28;20109;-70
2020/12/30 06:00:40;;;;;;;12.20;5.83;;;2.10;99.90;;;;;;5093400;28;20416;-70
2020/12/30 06:03:07;;;;;;;13.80;5.87;;;2.10;99.90;;;;;;5093297;28;20554;-70
2020/12/30 06:05:34;;;;;;;11.10;6.40;;;2.10;99.90;;;;;;5093646;28;20052;-70
2020/12/30 06:08:01;;;;;;;13.00;5.97;;;2.10;99.90;;;;;;5093638;28;20056;-70
2020/12/30 06:10:29;;;;;;;12.27;5.97;;;2.20;99.90;;;;;;5092803;28;20048;-70
2020/12/30 06:12:58;;;;;;;13.70;6.63;;;2.10;99.90;;;;;;5093413;28;20428;-70
2020/12/30 06:15:29;;;;;;;12.53;5.80;;;2.10;99.90;;;;;;5093435;28;20052;-70
2020/12/30 06:17:58;;;;;;;12.33;6.40;;;2.10;99.90;;;;;;5093411;28;20074;-70
2020/12/30 06:20:31;;;;;;;12.30;6.17;;;2.10;99.90;;;;;;5093026;28;20779;-70
2020/12/30 06:23:00;;;;;;;11.20;5.57;;;2.10;99.90;;;;;;5093407;28;20125;-71
2020/12/30 06:25:30;;;;;;;14.43;6.07;;;2.10;99.90;;;;;;5092666;28;20089;-70
2020/12/30 06:27:57;;;;;;;11.87;6.03;;;2.00;99.90;;;;;;5093519;28;20181;-70
2020/12/30 06:30:24;;;;;;;15.13;6.43;;;2.00;99.90;;;;;;5092747;28;20110;-70
2020/12/30 06:32:51;;;;;;;14.00;6.00;;;2.00;99.90;;;;;;5093198;28;20048;-70
2020/12/30 06:35:28;;;;;;;10.80;5.87;;;2.00;99.90;;;;;;5092510;28;20048;-70
2020/12/30 06:37:55;;;;;;;12.10;5.40;;;2.00;99.90;;;;;;5093008;28;20048;-71
2020/12/30 06:40:31;;;;;;;13.30;6.27;;;2.00;99.90;;;;;;5092020;28;20067;-71
2020/12/30 06:42:59;;;;;;;15.07;6.30;;;2.00;99.90;;;;;;5093013;28;20052;-70
2020/12/30 06:45:49;;;;;;;13.53;6.90;;;2.00;99.90;;;;;;5092287;28;20044;-70
2020/12/30 06:48:17;;;;;;;15.03;6.10;;;2.00;99.90;;;;;;5092641;28;20405;-70
2020/12/30 06:50:43;;;;;;;15.23;7.13;;;2.10;99.90;;;;;;5092014;28;20052;-71
2020/12/30 06:53:30;;;;;;;14.30;6.87;;;2.10;99.90;;;;;;5092566;28;20356;-70
2020/12/30 06:55:59;;;;;;;11.05;5.35;;;2.00;99.90;;;;;;5092142;28;20405;-70
2020/12/30 06:58:48;;;;;;;16.07;6.23;;;2.00;99.90;;;;;;5092582;28;20048;-70
2020/12/30 07:01:17;;;;;;;12.77;6.23;;;2.00;99.90;;;;;;5091920;28;20468;-70
2020/12/30 07:03:44;;;;;;;12.33;6.57;;;2.00;99.90;;;;;;5092451;28;20058;-70
2020/12/30 07:06:40;;;;;;;15.80;7.10;;;2.00;99.90;;;;;;5092153;28;20066;-71
2020/12/30 07:09:07;;;;;;;16.47;6.50;;;2.00;99.90;;;;;;5092273;28;20048;-70
2020/12/30 07:11:53;;;;;;;14.40;6.50;;;2.10;99.90;;;;;;5091930;28;20557;-70
2020/12/30 07:14:22;;;;;;;13.40;5.93;;;2.10;99.90;;;;;;5092215;28;20048;-70
2020/12/30 07:16:51;;;;;;;14.00;6.57;;;2.10;99.90;;;;;;5091931;28;20102;-70
2020/12/30 07:19:21;;;;;;;14.27;6.57;;;2.10;99.90;;;;;;5091955;28;20048;-70
2020/12/30 07:22:00;;;;;;;13.63;6.83;;;2.10;99.90;;;;;;5092119;28;20052;-70
2020/12/30 07:24:28;;;;;;;13.40;6.40;;;2.20;99.90;;;;;;5091729;28;20054;-70
2020/12/30 07:26:57;;;;;;;14.37;7.20;;;2.20;99.90;;;;;;5091951;28;20051;-71
2020/12/30 07:29:24;;;;;;;12.47;6.70;;;2.20;99.90;;;;;;5091184;28;20051;-71
2020/12/30 07:31:53;;;;;;;17.33;6.60;;;2.30;99.90;;;;;;5091669;28;20052;-70
2020/12/30 07:34:21;;;;;;;14.60;6.97;;;2.30;99.90;;;;;;5091665;28;20043;-70
2020/12/30 07:36:48;;;;;;;16.43;7.97;;;2.30;99.90;;;;;;5091666;28;20052;-70
2020/12/30 07:39:22;;;;;;;15.47;8.00;;;2.20;99.90;;;;;;5091359;28;20051;-70
2020/12/30 07:41:52;;;;;;;13.37;6.67;;;2.30;99.90;;;;;;5091496;28;20052;-71
2020/12/30 07:44:20;;;;;;;16.87;7.50;;;2.30;99.90;;;;;;5091871;28;20048;-70
2020/12/30 07:46:47;;;;;;;14.13;7.27;;;2.30;99.90;;;;;;5091559;28;20555;-70
2020/12/30 07:49:15;;;;;;;15.57;7.53;;;2.20;99.90;;;;;;5091180;28;20416;-70
2020/12/30 07:51:53;;;;;;;17.63;7.50;;;2.30;99.90;;;;;;5091131;28;20435;-70
2020/12/30 07:54:21;;;;;;;17.00;7.40;;;2.30;99.90;;;;;;5090805;28;20052;-70
2020/12/30 07:56:49;;;;;;;16.77;7.70;;;2.30;99.90;;;;;;5091177;28;20060;-70
2020/12/30 07:59:21;;;;;;;15.40;7.30;;;2.30;99.90;;;;;;5090986;28;20082;-70
2020/12/30 08:01:58;;;;;;;16.10;7.00;;;2.30;99.90;;;;;;5090489;28;20048;-70
2020/12/30 08:04:26;;;;;;;15.57;7.83;;;2.30;99.90;;;;;;5091467;28;20056;-70
2020/12/30 08:06:53;;;;;;;14.73;7.53;;;2.30;99.90;;;;;;5090729;28;20529;-71
2020/12/30 08:09:20;;;;;;;16.17;7.40;;;2.30;99.90;;;;;;5091554;28;20429;-70
2020/12/30 08:11:48;;;;;;;17.17;8.13;;;2.50;99.90;;;;;;5090829;28;20052;-70
2020/12/30 08:14:15;;;;;;;17.53;7.47;;;2.50;99.90;;;;;;5091092;28;20048;-70
2020/12/30 08:16:54;;;;;;;15.20;7.97;;;2.60;99.90;;;;;;5090368;28;20052;-70
2020/12/30 08:19:38;;;;;;;15.87;7.97;;;2.50;99.90;;;;;;5090897;28;20496;-71
2020/12/30 08:22:12;;;;;;;15.20;7.37;;;2.50;99.90;;;;;;5090740;28;20055;-70
2020/12/30 08:24:42;;;;;;;16.67;7.43;;;2.50;99.90;;;;;;5091238;28;20051;-71
2020/12/30 08:27:10;;;;;;;18.63;7.27;;;2.50;99.90;;;;;;5090627;28;20055;-70
2020/12/30 08:29:38;;;;;;;16.00;7.37;;;2.60;99.90;;;;;;5090857;28;20048;-71
2020/12/30 08:32:17;;;;;;;17.90;8.17;;;2.60;99.90;;;;;;5090078;28;20059;-70
2020/12/30 08:34:49;;;;;;;18.77;8.00;;;2.70;99.90;;;;;;5090997;28;20044;-70
2020/12/30 08:37:22;;;;;;;17.30;8.50;;;2.70;99.90;;;;;;5090322;28;20097;-71
2020/12/30 08:40:01;;;;;;;18.90;8.77;;;2.80;99.90;;;;;;5090885;28;20044;-71
2020/12/30 08:42:45;;;;;;;18.83;7.53;;;2.80;99.90;;;;;;5090001;28;20047;-70
2020/12/30 08:45:14;;;;;;;16.90;8.43;;;2.80;99.90;;;;;;5090903;28;20056;-71
2020/12/30 08:47:42;;;;;;;18.73;8.70;;;2.80;99.90;;;;;;5090331;28;20511;-71
2020/12/30 08:50:09;;;;;;;17.80;8.20;;;2.80;99.90;;;;;;5090604;28;20493;-70
2020/12/30 08:52:43;;;;;;;16.97;8.80;;;2.80;99.90;;;;;;5092396;28;20052;-71
2020/12/30 08:55:11;;;;;;;16.00;8.47;;;2.90;99.90;;;;;;5091622;28;20105;-71
2020/12/30 08:57:43;;;;;;;18.33;8.90;;;2.90;99.90;;;;;;5090076;28;20044;-71
2020/12/30 09:00:17;;;;;;;20.33;8.30;;;2.90;99.90;;;;;;5091168;28;20056;-71
2020/12/30 09:02:46;;;;;;;18.03;8.97;;;2.90;99.90;;;;;;5090113;28;20491;-71
2020/12/30 09:05:13;;;;;;;16.93;8.97;;;2.90;99.90;;;;;;5090519;28;20056;-70
2020/12/30 09:07:40;;;;;;;14.90;8.40;;;2.90;99.90;;;;;;5090578;28;20086;-71
2020/12/30 09:10:09;;;;;;;16.90;8.23;;;2.90;99.90;;;;;;5090106;28;20048;-70
2020/12/30 09:12:36;;;;;;;17.47;8.80;;;3.00;99.90;;;;;;5090420;28;20052;-71
2020/12/30 09:15:05;;;;;;;15.67;8.57;;;3.00;99.90;;;;;;5090111;28;20078;-71
2020/12/30 09:17:31;;;;;;;17.20;8.97;;;3.10;99.90;;;;;;5090537;28;20048;-71
2020/12/30 09:20:14;;;;;;;17.87;9.07;;;3.20;99.90;;;;;;5089842;28;20048;-71
2020/12/30 09:22:42;;;;;;;16.50;8.00;;;3.30;99.90;;;;;;5090846;28;20056;-71
2020/12/30 09:25:24;;;;;;;15.93;8.07;;;3.30;99.90;;;;;;5090318;28;20059;-71
2020/12/30 09:27:51;;;;;;;15.17;7.07;;;3.60;99.90;;;;;;5090552;28;20059;-71
2020/12/30 09:30:19;;;;;;;15.00;7.83;;;3.60;99.90;;;;;;5091984;28;20044;-71
2020/12/30 09:32:47;;;;;;;15.33;7.13;;;3.50;99.90;;;;;;5094266;28;20136;-71
2020/12/30 09:35:16;;;;;;;14.77;7.50;;;3.60;99.90;;;;;;5093607;28;20055;-71
2020/12/30 09:37:51;;;;;;;18.73;7.77;;;3.70;99.90;;;;;;5094134;28;20849;-71
2020/12/30 09:40:18;;;;;;;16.10;6.90;;;3.70;99.90;;;;;;5093561;28;20044;-71
2020/12/30 09:42:46;;;;;;;12.67;6.40;;;3.70;99.90;;;;;;5093828;28;20044;-71
2020/12/30 09:45:14;;;;;;;12.67;6.40;;;3.60;99.90;;;;;;5093660;28;20101;-71
2020/12/30 09:47:41;;;;;;;12.47;6.57;;;3.50;99.90;;;;;;5094030;28;20052;-71
2020/12/30 09:50:10;;;;;;;13.87;7.13;;;3.50;99.90;;;;;;5093164;28;20052;-71
2020/12/30 09:52:38;;;;;;;13.73;6.83;;;3.60;99.90;;;;;;5093929;28;20412;-71
2020/12/30 09:55:05;;;;;;;10.73;6.13;;;3.70;99.90;;;;;;5093876;28;20056;-71
2020/12/30 09:57:32;;;;;;;14.33;6.40;;;3.80;99.90;;;;;;5093348;28;20060;-71
2020/12/30 10:00:00;;;;;;;14.93;6.00;;;3.90;99.90;;;;;;5093813;28;20054;-71
2020/12/30 10:02:26;;;;;;;10.50;5.30;;;3.90;99.90;;;;;;5092942;28;20151;-71
2020/12/30 10:04:53;;;;;;;10.73;5.63;;;3.90;99.90;;;;;;5093574;28;20048;-71
2020/12/30 10:07:20;;;;;;;12.37;6.23;;;4.10;99.90;;;;;;5093126;28;20052;-71
2020/12/30 10:09:48;;;;;;;12.60;6.17;;;4.00;99.90;;;;;;5093784;28;20055;-71
2020/12/30 10:12:14;;;;;;;12.37;6.07;;;3.90;99.90;;;;;;5092898;28;20056;-71
2020/12/30 10:14:41;;;;;;;11.97;5.97;;;3.80;99.90;;;;;;5093761;28;20466;-70
2020/12/30 10:17:08;;;;;;;15.10;5.73;;;3.70;99.90;;;;;;5093146;28;20077;-71
2020/12/30 10:19:35;;;;;;;16.67;6.50;;;3.70;99.90;;;;;;5093151;28;20044;-71
2020/12/30 10:22:06;;;;;;;12.47;6.53;;;3.60;99.90;;;;;;5092852;28;20410;-71
2020/12/30 10:24:33;;;;;;;11.90;5.90;;;3.60;99.90;;;;;;5093314;28;20056;-70
2020/12/30 10:27:01;;;;;;;13.00;6.23;;;3.70;99.90;;;;;;5093035;28;20048;-70
2020/12/30 10:29:29;;;;;;;12.63;5.60;;;3.80;99.90;;;;;;5093585;28;20051;-71
2020/12/30 10:31:56;;;;;;;11.13;6.10;;;3.90;99.90;;;;;;5093296;28;20059;-71
2020/12/30 10:34:22;;;;;;;13.20;5.90;;;3.90;99.90;;;;;;5093092;28;20048;-70
2020/12/30 10:36:49;;;;;;;11.60;5.87;;;3.90;99.90;;;;;;5092466;28;20492;-70
2020/12/30 10:39:16;;;;;;;13.90;7.03;;;4.00;99.90;;;;;;5092927;28;20125;-71
2020/12/30 10:41:43;;;;;;;12.53;6.17;;;4.00;99.90;;;;;;5092292;28;20561;-71
2020/12/30 10:44:10;;;;;;;11.83;5.93;;;4.00;99.90;;;;;;5092601;28;20101;-71
2020/12/30 10:46:37;;;;;;;14.93;5.97;;;4.00;99.90;;;;;;5092794;28;20048;-70
2020/12/30 10:49:04;;;;;;;12.43;5.80;;;4.20;99.90;;;;;;5092210;28;20052;-71
2020/12/30 10:51:31;;;;;;;13.07;5.63;;;4.20;99.90;;;;;;5092226;28;20083;-70
2020/12/30 10:53:57;;;;;;;11.30;5.73;;;4.20;99.90;;;;;;5092410;28;20054;-71
2020/12/30 10:56:24;;;;;;;13.50;5.53;;;4.20;99.90;;;;;;5092583;28;20073;-71
2020/12/30 10:58:50;;;;;;;12.03;5.40;;;4.40;99.90;;;;;;5092117;28;20059;-71
2020/12/30 11:01:18;;;;;;;10.90;5.60;;;4.40;99.90;;;;;;5092733;28;20048;-71
2020/12/30 11:03:45;;;;;;;10.27;5.10;;;4.50;99.90;;;;;;5091864;28;20055;-71
2020/12/30 11:06:11;;;;;;;10.37;5.13;;;4.50;99.90;;;;;;5092159;28;20052;-70
2020/12/30 11:08:38;;;;;;;10.20;4.93;;;4.50;99.90;;;;;;5092173;28;20052;-71
2020/12/30 11:11:06;;;;;;;10.47;5.67;;;4.40;99.90;;;;;;5091531;28;20063;-70
2020/12/30 11:13:33;;;;;;;12.63;6.37;;;4.40;99.90;;;;;;5092131;28;20052;-71
2020/12/30 11:16:00;;;;;;;12.83;6.23;;;4.40;99.90;;;;;;5091717;28;20059;-71
2020/12/30 11:18:27;;;;;;;12.33;5.30;;;4.50;99.90;;;;;;5091964;28;20044;-71
2020/12/30 11:20:54;;;;;;;13.70;5.17;;;4.70;99.90;;;;;;5091512;28;20082;-71
2020/12/30 11:23:20;;;;;;;11.23;5.60;;;4.70;99.90;;;;;;5092074;28;20105;-72
2020/12/30 11:25:47;;;;;;;12.87;6.43;;;4.80;99.90;;;;;;5091465;28;20059;-71
2020/12/30 11:28:14;;;;;;;13.23;6.70;;;4.80;99.90;;;;;;5091298;28;20052;-71
2020/12/30 11:30:41;;;;;;;13.63;6.27;;;4.90;99.90;;;;;;5091522;28;20519;-71
2020/12/30 11:33:08;;;;;;;11.93;5.83;;;4.90;99.90;;;;;;5091530;28;20067;-71
2020/12/30 11:35:35;;;;;;;10.43;5.47;;;4.90;99.90;;;;;;5091437;28;20543;-71
2020/12/30 11:38:02;;;;;;;13.43;6.03;;;5.00;99.90;;;;;;5091838;28;20064;-71
2020/12/30 11:40:30;;;;;;;12.37;4.97;;;5.10;99.90;;;;;;5091255;28;20048;-73
2020/12/30 11:42:56;;;;;;;11.23;5.27;;;5.00;99.90;;;;;;5092141;28;20062;-73
2020/12/30 11:45:23;;;;;;;10.73;5.30;;;5.00;99.90;;;;;;5092596;28;20048;-73
2020/12/30 11:47:50;;;;;;;9.20;5.00;;;5.00;99.90;;;;;;5092095;28;20566;-74
2020/12/30 11:50:17;;;;;;;14.27;6.40;;;5.30;99.90;;;;;;5092354;28;20055;-73
2020/12/30 11:52:46;;;;;;;10.03;4.83;;;5.60;99.90;;;;;;5091076;28;20135;-74
2020/12/30 11:55:13;;;;;;;8.73;4.40;;;6.00;99.90;;;;;;5091988;28;20060;-73
2020/12/30 11:57:39;;;;;;;9.30;4.73;;;6.20;99.90;;;;;;5091826;28;20055;-73
2020/12/30 12:00:08;;;;;;;8.93;3.93;;;6.40;99.90;;;;;;5091572;28;20055;-75
2020/12/30 12:02:34;;;;;;;11.80;5.20;;;6.40;99.90;;;;;;5091409;28;20052;-74
2020/12/30 12:05:01;;;;;;;10.43;4.20;;;6.40;99.90;;;;;;5091715;28;20052;-74
2020/12/30 12:07:29;;;;;;;8.20;4.30;;;6.40;99.90;;;;;;5091490;28;20546;-73
2020/12/30 12:09:57;;;;;;;8.68;4.07;;;6.40;99.90;;;;;;5091818;28;20048;-74
2020/12/30 12:12:24;;;;;;;10.13;4.40;;;6.40;99.90;;;;;;5091465;28;20077;-73
2020/12/30 12:14:54;;;;;;;9.27;3.63;;;6.30;99.90;;;;;;5092230;28;20052;-74
2020/12/30 12:17:21;;;;;;;10.40;4.13;;;6.20;99.90;;;;;;5092017;28;20062;-75
2020/12/30 12:19:48;;;;;;;9.60;4.10;;;6.20;99.90;;;;;;5091579;28;20073;-73
2020/12/30 12:22:15;;;;;;;7.43;3.80;;;5.90;99.90;;;;;;5091575;28;20051;-74
2020/12/30 12:24:42;;;;;;;8.03;4.00;;;5.80;99.90;;;;;;5091425;28;20048;-73
2020/12/30 12:27:10;;;;;;;11.43;4.47;;;5.70;99.90;;;;;;5091776;28;20052;-74
2020/12/30 12:29:47;;;;;;;9.70;4.50;;;5.70;99.90;;;;;;5091039;28;20052;-73
2020/12/30 12:32:15;;;;;;;10.27;4.82;;;5.60;99.90;;;;;;5091224;28;20059;-73
2020/12/30 12:34:43;;;;;;;12.27;4.57;;;5.50;99.90;;;;;;5090822;28;20055;-73
2020/12/30 12:37:10;;;;;;;10.87;4.20;;;5.60;99.90;;;;;;5091205;28;20048;-73
2020/12/30 12:39:39;;;;;;;9.70;4.43;;;5.50;99.90;;;;;;5090683;28;20055;-74
2020/12/30 12:42:06;;;;;;;13.60;5.03;;;5.50;99.90;;;;;;5091224;28;20458;-74
2020/12/30 12:44:34;;;;;;;10.00;3.87;;;5.30;99.90;;;;;;5090821;28;20056;-73
2020/12/30 12:47:00;;;;;;;10.40;5.40;;;5.20;99.90;;;;;;5091029;28;20048;-73
2020/12/30 12:49:27;;;;;;;9.00;4.37;;;5.20;99.90;;;;;;5090569;28;20044;-75
2020/12/30 12:51:55;;;;;;;9.10;4.23;;;5.30;99.90;;;;;;5090560;28;20052;-73
2020/12/30 12:54:23;;;;;;;9.73;4.87;;;5.40;99.90;;;;;;5090618;28;20044;-74